Time;durP1;ratioP1;P1;durP2;ratioP2;P2;SDS_P1;SDS_P2;PMS_P1;PMS_P2;Temp;Humidity;BMP_temperature;BMP_pressure;BME280_temperature;BME280_humidity;BME280_pressure;Samples;Min_cycle;Max_cycle;Signal;HPM_P1;HPM_P2
2022/11/12 00:00:43;;;;;;;;;;;;;;;6.70;98.18;101949.27;1446179;90;20316;-82
2022/11/12 00:03:09;;;;;;;;;;;;;;;6.62;98.02;101950.16;1425795;90;20294;-83
2022/11/12 00:05:35;;;;;;;;;;;;;;;6.56;97.45;101946.55;1397654;93;20337;-83
2022/11/12 00:08:01;;;;;;;;;;;;;;;6.51;97.65;101952.53;1434373;90;20294;-82
2022/11/12 00:10:27;;;;;;;;;;;;;;;6.45;97.97;101962.92;1441563;89;20292;-82
2022/11/12 00:12:54;;;;;;;;;;;;;;;6.40;97.46;101968.05;1449064;89;20314;-83
2022/11/12 00:15:20;;;;;;;;;;;;;;;6.31;97.22;101960.19;1440403;90;20315;-84
2022/11/12 00:17:45;;;;;;;;;;;;;;;6.23;98.04;101971.10;1436208;90;20339;-83
2022/11/12 00:20:11;;;;;;;;;;;;;;;6.15;97.77;101971.12;1439149;91;20325;-83
2022/11/12 00:22:38;;;;;;;;;;;;;;;6.10;98.42;101968.77;1435789;90;20988;-84
2022/11/12 00:25:04;;;;;;;;;;;;;;;6.05;98.64;101970.78;1447515;89;20314;-82
2022/11/12 00:27:34;;;;;;;;;;;;;;;5.99;99.06;101977.20;1416822;90;20289;-84
2022/11/12 00:30:00;;;;;;;;;;;;;;;5.96;98.76;101983.94;1409973;92;20359;-83
2022/11/12 00:32:26;;;;;;;;;;;;;;;5.90;98.97;101973.71;1433460;90;20426;-84
2022/11/12 00:34:52;;;;;;;;;;;;;;;5.87;98.59;101980.44;1429567;89;20310;-83
2022/11/12 00:37:19;;;;;;;;;;;;;;;5.82;99.76;101974.09;1431785;89;20863;-85
2022/11/12 00:39:45;;;;;;;;;;;;;;;5.76;100.00;101983.61;1428442;90;20398;-84
2022/11/12 00:42:11;;;;;;;;;;;;;;;5.75;100.00;101981.89;1416214;92;20553;-85
2022/11/12 00:44:37;;;;;;;;;;;;;;;5.76;100.00;101977.05;1422226;91;20335;-84
2022/11/12 00:47:03;;;;;;;;;;;;;;;5.79;100.00;101978.20;1417758;92;20810;-83
2022/11/12 00:49:29;;;;;;;;;;;;;;;5.80;99.97;101977.73;1437888;91;20395;-80
2022/11/12 00:51:55;;;;;;;;;;;;;;;5.81;100.00;101976.35;1438707;91;20325;-82
2022/11/12 00:54:20;;;;;;;;;;;;;;;5.84;100.00;101973.56;1431763;91;20294;-82
2022/11/12 00:56:47;;;;;;;;;;;;;;;5.88;100.00;101971.15;1427661;91;20377;-82
2022/11/12 00:59:15;;;;;;;;;;;;;;;5.95;100.00;101959.03;1431452;91;20326;-81
2022/11/12 01:01:41;;;;;;;;;;;;;;;6.03;99.55;101963.42;1435738;90;20309;-81
2022/11/12 01:04:08;;;;;;;;;;;;;;;6.06;99.34;101958.00;1435753;90;20307;-81
2022/11/12 01:06:34;;;;;;;;;;;;;;;6.10;99.27;101955.62;1449098;90;20456;-81
2022/11/12 01:09:00;;;;;;;;;;;;;;;6.13;99.44;101950.20;1447210;90;20470;-82
2022/11/12 01:11:28;;;;;;;;;;;;;;;6.17;99.82;101943.83;1446637;91;20332;-82
2022/11/12 01:13:56;;;;;;;;;;;;;;;6.19;99.64;101941.98;1446456;91;20430;-82
2022/11/12 01:16:25;;;;;;;;;;;;;;;6.23;99.72;101938.23;1438247;91;20294;-81
2022/11/12 01:18:56;;;;;;;;;;;;;;;6.24;100.00;101936.45;1437992;91;20286;-81
2022/11/12 01:21:23;;;;;;;;;;;;;;;6.26;100.00;101936.75;1420227;91;20454;-81
2022/11/12 01:23:50;;;;;;;;;;;;;;;6.27;100.00;101933.66;1414294;92;20453;-81
2022/11/12 01:26:17;;;;;;;;;;;;;;;6.25;100.00;101936.38;1416667;90;20812;-81
2022/11/12 01:28:43;;;;;;;;;;;;;;;6.26;100.00;101936.75;1413537;90;21266;-81
2022/11/12 01:31:21;;;;;;;;;;;;;;;6.27;100.00;101923.14;1436811;90;20286;-82
2022/11/12 01:33:49;;;;;;;;;;;;;;;6.29;100.00;101923.44;1447681;90;20308;-81
2022/11/12 01:36:16;;;;;;;;;;;;;;;6.28;100.00;101929.64;1420982;90;20334;-81
2022/11/12 01:38:43;;;;;;;;;;;;;;;6.28;100.00;101927.48;1432376;90;20287;-81
2022/11/12 01:41:15;;;;;;;;;;;;;;;6.28;100.00;101931.43;1443480;90;20280;-81
2022/11/12 01:43:41;;;;;;;;;;;;;;;6.28;100.00;101925.70;1458335;89;21048;-80
2022/11/12 01:46:13;;;;;;;;;;;;;;;6.29;100.00;101922.59;1432693;91;20296;-80
2022/11/12 01:48:54;;;;;;;;;;;;;;;6.32;100.00;101916.70;1402073;92;20319;-81
2022/11/12 01:51:22;;;;;;;;;;;;;;;6.35;100.00;101915.69;1413975;92;20372;-81
2022/11/12 01:53:51;;;;;;;;;;;;;;;6.36;100.00;101919.16;1421269;92;20281;-81
2022/11/12 01:56:17;;;;;;;;;;;;;;;6.36;100.00;101913.89;1435482;91;20324;-81
2022/11/12 01:58:45;;;;;;;;;;;;;;;6.37;100.00;101918.25;1433860;91;20830;-80
2022/11/12 02:01:11;;;;;;;;;;;;;;;6.38;100.00;101915.52;1432090;91;20889;-81
2022/11/12 02:03:37;;;;;;;;;;;;;;;6.41;100.00;101914.50;1431827;91;20324;-81
2022/11/12 02:06:06;;;;;;;;;;;;;;;6.44;100.00;101911.70;1439282;91;20402;-81
2022/11/12 02:08:32;;;;;;;;;;;;;;;6.50;100.00;101910.05;1419985;91;20316;-81
2022/11/12 02:11:14;;;;;;;;;;;;;;;6.59;100.00;101910.00;1436156;90;20369;-81
2022/11/12 02:13:56;;;;;;;;;;;;;;;6.66;100.00;101913.52;1413561;90;20780;-80
2022/11/12 02:16:26;;;;;;;;;;;;;;;6.76;100.00;101908.14;1418126;90;20305;-81
2022/11/12 02:18:52;;;;;;;;;;;;;;;6.83;100.00;101910.42;1415842;92;20275;-80
2022/11/12 02:21:22;;;;;;;;;;;;;;;6.83;100.00;101907.31;1428958;90;20367;-81
2022/11/12 02:24:04;;;;;;;;;;;;;;;6.84;100.00;101912.10;1441391;90;20405;-81
2022/11/12 02:26:36;;;;;;;;;;;;;;;6.89;100.00;101917.96;1432684;90;20313;-80
2022/11/12 02:29:02;;;;;;;;;;;;;;;6.87;100.00;101918.03;1413603;90;20356;-80
2022/11/12 02:31:29;;;;;;;;;;;;;;;6.82;100.00;101917.91;1444060;90;20542;-81
2022/11/12 02:33:55;;;;;;;;;;;;;;;6.76;100.00;101914.72;1436315;90;20332;-81
2022/11/12 02:36:21;;;;;;;;;;;;;;;6.75;100.00;101923.53;1445638;90;20361;-82
2022/11/12 02:38:47;;;;;;;;;;;;;;;6.68;100.00;101928.77;1444512;90;20293;-82
2022/11/12 02:41:13;;;;;;;;;;;;;;;6.62;100.00;101930.43;1417203;90;20356;-82
2022/11/12 02:43:39;;;;;;;;;;;;;;;6.62;100.00;101931.74;1422264;90;20460;-81
2022/11/12 02:46:06;;;;;;;;;;;;;;;6.61;100.00;101937.92;1443421;90;20398;-82
2022/11/12 02:48:32;;;;;;;;;;;;;;;6.61;100.00;101945.81;1436970;90;20354;-81
2022/11/12 02:50:58;;;;;;;;;;;;;;;6.60;100.00;101938.86;1442590;90;20830;-81
2022/11/12 02:53:24;;;;;;;;;;;;;;;6.61;100.00;101943.18;1439972;90;20228;-82
2022/11/12 02:55:50;;;;;;;;;;;;;;;6.59;100.00;101951.65;1442492;90;20302;-82
2022/11/12 02:58:15;;;;;;;;;;;;;;;6.58;100.00;101956.50;1443174;90;20294;-81
2022/11/12 03:00:41;;;;;;;;;;;;;;;6.59;100.00;101961.30;1432286;91;20335;-82
2022/11/12 03:03:07;;;;;;;;;;;;;;;6.55;100.00;101956.20;1432147;91;20289;-81
2022/11/12 03:05:34;;;;;;;;;;;;;;;6.53;100.00;101959.41;1433082;91;20384;-82
2022/11/12 03:08:07;;;;;;;;;;;;;;;6.56;100.00;101958.39;1459726;90;20352;-82
2022/11/12 03:10:35;;;;;;;;;;;;;;;6.60;100.00;101958.59;1442582;90;20250;-82
2022/11/12 03:13:01;;;;;;;;;;;;;;;6.67;100.00;101959.94;1442597;90;20296;-80
2022/11/12 03:15:28;;;;;;;;;;;;;;;6.76;100.00;101956.82;1426275;90;20223;-80
2022/11/12 03:17:56;;;;;;;;;;;;;;;6.86;100.00;101955.83;1429998;90;20305;-81
2022/11/12 03:20:22;;;;;;;;;;;;;;;6.92;100.00;101948.05;1397727;90;20393;-81
2022/11/12 03:22:56;;;;;;;;;;;;;;;6.99;100.00;101954.21;1410972;92;20275;-80
2022/11/12 03:25:23;;;;;;;;;;;;;;;7.04;100.00;101953.93;1414501;92;20795;-81
2022/11/12 03:27:52;;;;;;;;;;;;;;;7.09;100.00;101949.26;1411263;92;20421;-80
2022/11/12 03:30:18;;;;;;;;;;;;;;;7.16;100.00;101958.52;1406493;92;21009;-81
2022/11/12 03:32:44;;;;;;;;;;;;;;;7.19;100.00;101951.75;1422954;90;20235;-81
2022/11/12 03:35:10;;;;;;;;;;;;;;;7.20;100.00;101942.06;1446671;90;20250;-81
2022/11/12 03:37:35;;;;;;;;;;;;;;;7.16;100.00;101950.62;1446592;90;20756;-82
2022/11/12 03:40:02;;;;;;;;;;;;;;;7.08;100.00;101948.89;1441728;90;20295;-79
2022/11/12 03:42:28;;;;;;;;;;;;;;;7.04;100.00;101944.72;1445293;90;20331;-81
2022/11/12 03:44:54;;;;;;;;;;;;;;;7.06;100.00;101949.91;1422430;90;20297;-81
2022/11/12 03:47:19;;;;;;;;;;;;;;;7.01;100.00;101958.89;1425699;90;20312;-80
2022/11/12 03:49:45;;;;;;;;;;;;;;;6.89;100.00;101949.55;1388589;94;20300;-80
2022/11/12 03:52:11;;;;;;;;;;;;;;;6.93;100.00;101948.42;1415950;92;20325;-82
2022/11/12 03:54:37;;;;;;;;;;;;;;;6.93;100.00;101951.93;1419792;92;20297;-81
2022/11/12 03:57:03;;;;;;;;;;;;;;;6.93;100.00;101947.11;1414510;92;20365;-82
2022/11/12 03:59:29;;;;;;;;;;;;;;;6.93;100.00;101951.05;1418031;92;20297;-80
2022/11/12 04:01:54;;;;;;;;;;;;;;;6.95;100.00;101942.61;1412723;92;20408;-81
2022/11/12 04:04:20;;;;;;;;;;;;;;;6.92;100.00;101942.79;1420040;91;20837;-81
2022/11/12 04:09:31;;;;;;;;;;;;;;;6.99;100.00;101940.17;1444088;90;20903;-81
2022/11/12 04:13:26;;;;;;;;;;;;;;;6.95;100.00;101938.66;1410399;90;20342;-80
2022/11/12 04:14:24;;;;;;;;;;;;;;;6.96;100.00;101935.96;1412364;92;20401;-81
2022/11/12 04:22:19;;;;;;;;;;;;;;;6.98;100.00;101936.70;1431600;90;20807;-80
2022/11/12 04:27:32;;;;;;;;;;;;;;;6.95;100.00;101939.98;1408512;92;20419;-81
2022/11/12 04:32:49;;;;;;;;;;;;;;;6.96;100.00;101949.13;1416958;92;20297;-81
2022/11/12 04:35:15;;;;;;;;;;;;;;;6.98;100.00;101951.66;1407739;90;20869;-81
2022/11/12 04:37:44;;;;;;;;;;;;;;;6.99;100.00;101957.28;1439605;90;21080;-81
2022/11/12 04:45:49;;;;;;;;;;;;;;;6.99;100.00;101969.13;1437592;90;20258;-81
2022/11/12 04:48:15;;;;;;;;;;;;;;;6.98;100.00;101972.23;1421234;91;20272;-81
2022/11/12 04:50:43;;;;;;;;;;;;;;;6.99;100.00;101969.13;1433725;91;20520;-81
2022/11/12 04:53:09;;;;;;;;;;;;;;;7.03;100.00;101971.98;1432131;91;20379;-81
2022/11/12 04:55:35;;;;;;;;;;;;;;;7.07;100.00;101967.39;1425721;92;20304;-82
2022/11/12 04:58:01;;;;;;;;;;;;;;;7.13;100.00;101970.98;1425338;91;20325;-82
2022/11/12 05:00:28;;;;;;;;;;;;;;;7.17;100.00;101971.20;1431424;91;20317;-82
2022/11/12 05:02:53;;;;;;;;;;;;;;;7.23;100.00;101966.42;1428897;91;20324;-82
2022/11/12 05:05:19;;;;;;;;;;;;;;;7.26;100.00;101973.78;1452262;89;20308;-81
2022/11/12 05:07:45;;;;;;;;;;;;;;;7.31;100.00;101976.97;1452929;89;20322;-81
2022/11/12 05:10:11;;;;;;;;;;;;;;;7.37;100.00;101979.28;1426444;90;20812;-80
2022/11/12 05:12:37;;;;;;;;;;;;;;;7.44;100.00;101982.77;1420663;90;20356;-81
2022/11/12 05:15:04;;;;;;;;;;;;;;;7.45;100.00;101977.89;1416018;90;20379;-80
2022/11/12 05:17:30;;;;;;;;;;;;;;;7.48;100.00;101978.19;1429994;90;20297;-80
2022/11/12 05:19:56;;;;;;;;;;;;;;;7.51;100.00;101975.38;1428353;90;20281;-80
2022/11/12 05:22:22;;;;;;;;;;;;;;;7.52;100.00;101978.38;1426123;90;20810;-81
2022/11/12 05:24:48;;;;;;;;;;;;;;;7.44;100.00;101980.13;1405859;92;20246;-80
2022/11/12 05:27:19;;;;;;;;;;;;;;;7.45;100.00;101978.34;1421155;90;20320;-83
2022/11/12 05:29:45;;;;;;;;;;;;;;;7.43;100.00;101977.60;1452664;90;20393;-82
2022/11/12 05:32:14;;;;;;;;;;;;;;;7.44;100.00;101970.06;1444008;90;20301;-81
2022/11/12 05:34:40;;;;;;;;;;;;;;;7.43;100.00;101968.38;1451628;90;20295;-82
2022/11/12 05:37:07;;;;;;;;;;;;;;;7.42;100.00;101971.94;1450775;90;20741;-83
2022/11/12 05:39:33;;;;;;;;;;;;;;;7.41;100.00;101985.58;1429596;90;20283;-83
2022/11/12 05:41:59;;;;;;;;;;;;;;;7.39;100.00;101980.02;1430300;90;20981;-83
2022/11/12 05:44:25;;;;;;;;;;;;;;;7.39;100.00;101983.97;1420258;90;20253;-83
2022/11/12 05:46:51;;;;;;;;;;;;;;;7.37;100.00;101980.13;1425095;90;20324;-82
2022/11/12 05:49:17;;;;;;;;;;;;;;;7.41;100.00;101982.10;1448173;90;20287;-85
2022/11/12 05:51:43;;;;;;;;;;;;;;;7.41;100.00;101990.00;1420818;90;20298;-84
2022/11/12 05:54:10;;;;;;;;;;;;;;;7.39;100.00;101986.60;1416750;92;20431;-83
2022/11/12 05:56:36;;;;;;;;;;;;;;;7.41;100.00;101996.59;1438458;90;20294;-83
2022/11/12 05:59:05;;;;;;;;;;;;;;;7.41;100.00;101988.69;1420833;90;20260;-83
2022/11/12 06:01:31;;;;;;;;;;;;;;;7.40;100.00;101990.95;1437845;90;20342;-81
2022/11/12 06:03:57;;;;;;;;;;;;;;;7.44;100.00;101994.62;1422516;92;20319;-83
2022/11/12 06:06:23;;;;;;;;;;;;;;;7.52;100.00;102003.88;1436283;90;20787;-84
2022/11/12 06:08:48;;;;;;;;;;;;;;;7.56;100.00;102002.27;1420435;90;20451;-84
2022/11/12 06:11:14;;;;;;;;;;;;;;;7.65;100.00;102004.39;1426531;90;20312;-83
2022/11/12 06:13:41;;;;;;;;;;;;;;;7.73;100.00;102007.03;1444241;90;20316;-83
2022/11/12 06:16:07;;;;;;;;;;;;;;;7.76;100.00;102006.37;1423743;90;20379;-83
2022/11/12 06:18:33;;;;;;;;;;;;;;;7.81;100.00;102003.48;1419567;92;20353;-83
2022/11/12 06:21:19;;;;;;;;;;;;;;;7.90;100.00;102001.61;1442676;89;20803;-82
2022/11/12 06:23:45;;;;;;;;;;;;;;;7.97;100.00;102001.63;1415981;90;20386;-82
2022/11/12 06:26:12;;;;;;;;;;;;;;;8.10;100.00;102003.89;1419851;90;20297;-83
2022/11/12 06:28:38;;;;;;;;;;;;;;;8.21;100.00;102003.72;1414577;90;20319;-82
2022/11/12 06:31:04;;;;;;;;;;;;;;;8.29;100.00;102013.33;1412807;90;20402;-83
2022/11/12 06:33:30;;;;;;;;;;;;;;;8.40;100.00;102017.95;1406798;92;20331;-83
2022/11/12 06:36:01;;;;;;;;;;;;;;;8.51;100.00;102009.75;1417002;92;20298;-83
2022/11/12 06:38:25;;;;;;;;;;;;;;;8.60;100.00;102021.52;1417556;90;20381;-84
2022/11/12 06:40:51;;;;;;;;;;;;;;;8.72;100.00;102017.30;1421763;90;20280;-82
2022/11/12 06:43:17;;;;;;;;;;;;;;;8.82;100.00;102019.71;1437472;90;20228;-81
2022/11/12 06:45:42;;;;;;;;;;;;;;;8.89;100.00;102018.39;1423701;90;20342;-80
2022/11/12 06:48:08;;;;;;;;;;;;;;;8.96;99.59;102014.88;1402326;92;20297;-82
2022/11/12 06:50:34;;;;;;;;;;;;;;;9.00;99.42;102019.84;1411100;92;20254;-82
2022/11/12 06:53:00;;;;;;;;;;;;;;;9.08;99.17;102014.08;1419078;90;20312;-79
2022/11/12 06:55:26;;;;;;;;;;;;;;;9.16;99.16;102016.23;1439528;90;20375;-81
2022/11/12 06:57:52;;;;;;;;;;;;;;;9.23;98.07;102018.84;1426982;90;20309;-81
2022/11/12 07:00:19;;;;;;;;;;;;;;;9.28;97.15;102025.16;1392855;94;21019;-81
2022/11/12 07:02:45;;;;;;;;;;;;;;;9.29;96.61;102038.25;1447599;90;21581;-81
2022/11/12 07:05:11;;;;;;;;;;;;;;;9.33;97.38;102044.20;1433894;91;20334;-80
2022/11/12 07:07:37;;;;;;;;;;;;;;;9.39;97.75;102035.87;1419031;92;20311;-82
2022/11/12 07:10:03;;;;;;;;;;;;;;;9.41;97.09;102033.98;1425553;92;20297;-81
2022/11/12 07:12:29;;;;;;;;;;;;;;;9.41;97.06;102040.11;1445649;90;20270;-81
2022/11/12 07:14:55;;;;;;;;;;;;;;;9.44;96.91;102034.63;1450847;90;20375;-79
2022/11/12 07:17:21;;;;;;;;;;;;;;;9.45;96.94;102030.17;1443748;90;20285;-80
2022/11/12 07:19:46;;;;;;;;;;;;;;;9.52;97.30;102035.41;1438859;90;20312;-80
2022/11/12 07:22:12;;;;;;;;;;;;;;;9.57;97.38;102032.48;1446340;90;20279;-80
2022/11/12 07:24:38;;;;;;;;;;;;;;;9.61;96.92;102031.31;1443991;90;20286;-80
2022/11/12 07:27:04;;;;;;;;;;;;;;;9.66;96.42;102037.15;1452375;90;20212;-79
2022/11/12 07:29:30;;;;;;;;;;;;;;;9.64;95.12;102044.36;1438346;90;20282;-80
2022/11/12 07:31:56;;;;;;;;;;;;;;;9.58;94.68;102052.66;1394904;92;20314;-80
2022/11/12 07:34:21;;;;;;;;;;;;;;;9.63;95.16;102051.41;1419104;90;20386;-80
2022/11/12 07:36:50;;;;;;;;;;;;;;;9.71;94.46;102054.88;1435904;90;20324;-80
2022/11/12 07:39:15;;;;;;;;;;;;;;;9.83;94.95;102054.53;1418212;90;20433;-80
2022/11/12 07:41:41;;;;;;;;;;;;;;;9.97;95.31;102046.52;1438496;90;20272;-82
2022/11/12 07:44:07;;;;;;;;;;;;;;;10.12;93.66;102047.27;1444763;90;20243;-80
2022/11/12 07:46:33;;;;;;;;;;;;;;;10.21;92.63;102043.98;1415226;90;20400;-78
2022/11/12 07:48:59;;;;;;;;;;;;;;;10.31;93.11;102047.73;1412959;92;20686;-76
2022/11/12 07:51:27;;;;;;;;;;;;;;;10.41;91.69;102037.81;1415215;92;20327;-76
2022/11/12 07:53:55;;;;;;;;;;;;;;;10.47;90.69;102034.73;1423358;90;21294;-77
2022/11/12 07:56:23;;;;;;;;;;;;;;;10.51;90.63;102037.56;1438229;90;20909;-77
2022/11/12 07:58:50;;;;;;;;;;;;;;;10.55;90.22;102036.38;1418268;90;20327;-77
2022/11/12 08:01:32;;;;;;;;;;;;;;;10.58;89.81;102036.16;1430303;90;20859;-78
2022/11/12 08:04:03;;;;;;;;;;;;;;;10.64;90.97;102035.72;1439284;90;20258;-76
2022/11/12 08:06:30;;;;;;;;;;;;;;;10.74;91.61;102043.87;1433181;90;20767;-77
2022/11/12 08:08:57;;;;;;;;;;;;;;;10.80;89.23;102043.44;1417192;92;20305;-78
2022/11/12 08:11:23;;;;;;;;;;;;;;;10.83;90.15;102039.23;1426301;91;20365;-78
2022/11/12 08:13:49;;;;;;;;;;;;;;;10.91;90.16;102044.00;1439109;91;20838;-78
2022/11/12 08:16:15;;;;;;;;;;;;;;;11.00;89.02;102045.97;1421767;91;20239;-77
2022/11/12 08:18:43;;;;;;;;;;;;;;;11.13;88.09;102045.43;1443020;91;20281;-78
2022/11/12 08:21:12;;;;;;;;;;;;;;;11.21;88.21;102042.23;1434304;91;20984;-78
2022/11/12 08:23:38;;;;;;;;;;;;;;;11.18;85.68;102053.90;1440523;91;20250;-77
2022/11/12 08:26:07;;;;;;;;;;;;;;;11.25;85.78;102050.34;1433804;89;20300;-77
2022/11/12 08:28:35;;;;;;;;;;;;;;;11.41;87.68;102051.38;1451393;89;20299;-77
2022/11/12 08:31:09;;;;;;;;;;;;;;;11.47;83.89;102053.56;1414887;90;20290;-78
2022/11/12 08:33:35;;;;;;;;;;;;;;;11.66;86.40;102061.84;1423929;90;20312;-77
2022/11/12 08:36:04;;;;;;;;;;;;;;;11.83;86.78;102061.91;1414653;92;20289;-77
2022/11/12 08:38:31;;;;;;;;;;;;;;;11.97;84.61;102064.88;1414304;90;20855;-78
2022/11/12 08:41:03;;;;;;;;;;;;;;;12.05;82.79;102065.11;1411618;92;20334;-79
2022/11/12 08:43:29;;;;;;;;;;;;;;;12.27;83.69;102068.79;1414939;92;20296;-78
2022/11/12 08:45:59;;;;;;;;;;;;;;;12.32;80.37;102063.98;1429792;90;20301;-89
2022/11/12 08:48:26;;;;;;;;;;;;;;;12.23;78.87;102059.36;1435178;89;20451;-89
2022/11/12 08:50:53;;;;;;;;;;;;;;;12.48;81.79;102064.45;1438355;90;20927;-89
2022/11/12 08:53:21;;;;;;;;;;;;;;;12.49;79.02;102061.34;1429946;91;20370;-88
2022/11/12 08:55:47;;;;;;;;;;;;;;;12.57;81.44;102061.09;1434280;91;20302;-85
2022/11/12 08:58:13;;;;;;;;;;;;;;;12.61;79.86;102051.91;1447359;90;20287;-87
2022/11/12 09:00:42;;;;;;;;;;;;;;;12.62;78.12;102049.61;1434950;90;20243;-86
2022/11/12 09:03:13;;;;;;;;;;;;;;;12.60;78.50;102050.23;1446795;90;20300;-89
2022/11/12 09:05:39;;;;;;;;;;;;;;;12.71;79.09;102045.38;1436221;91;20288;-87
2022/11/12 09:08:07;;;;;;;;;;;;;;;12.83;79.88;102050.19;1445069;90;20325;-88
2022/11/12 09:10:34;;;;;;;;;;;;;;;12.76;76.88;102050.33;1392866;92;20314;-89
2022/11/12 09:12:59;;;;;;;;;;;;;;;12.99;76.58;102052.47;1424850;90;20893;-88
2022/11/12 09:15:26;;;;;;;;;;;;;;;13.63;75.62;102054.34;1417006;91;20317;-88
2022/11/12 09:17:56;;;;;;;;;;;;;;;14.08;70.16;102055.45;1412863;92;20241;-87
2022/11/12 09:20:23;;;;;;;;;;;;;;;15.08;70.20;102048.94;1412257;92;20303;-86
2022/11/12 09:22:49;;;;;;;;;;;;;;;15.85;70.30;102048.62;1440712;90;20316;-87
2022/11/12 09:25:15;;;;;;;;;;;;;;;16.32;64.05;102046.84;1443329;90;20399;-88
2022/11/12 09:27:41;;;;;;;;;;;;;;;16.89;66.52;102047.59;1444035;90;20838;-87
2022/11/12 09:30:08;;;;;;;;;;;;;;;17.34;63.05;102045.88;1432295;90;20289;-86
2022/11/12 09:32:33;;;;;;;;;;;;;;;17.69;60.10;102049.52;1434124;90;20367;-88
2022/11/12 09:35:01;;;;;;;;;;;;;;;18.02;62.04;102046.13;1431779;90;20416;-86
2022/11/12 09:37:27;;;;;;;;;;;;;;;18.32;58.80;102047.98;1413962;90;20797;-89
2022/11/12 09:39:53;;;;;;;;;;;;;;;18.54;56.65;102046.59;1413324;92;20487;-88
2022/11/12 09:42:21;;;;;;;;;;;;;;;18.66;54.78;102045.30;1439168;90;20376;-87
2022/11/12 09:44:53;;;;;;;;;;;;;;;18.80;53.38;102039.86;1445269;90;20309;-85
2022/11/12 09:47:37;;;;;;;;;;;;;;;18.89;53.68;102041.55;1415930;90;20326;-82
2022/11/12 09:50:19;;;;;;;;;;;;;;;19.22;57.53;102052.86;1432074;90;20297;-81
2022/11/12 09:52:46;;;;;;;;;;;;;;;18.89;50.97;102056.31;1390153;93;20322;-82
2022/11/12 09:55:16;;;;;;;;;;;;;;;18.56;51.76;102066.52;1402474;90;20863;-82
2022/11/12 09:57:41;;;;;;;;;;;;;;;18.92;55.65;102057.33;1419848;92;20349;-83
2022/11/12 10:00:17;;;;;;;;;;;;;;;18.88;50.74;102051.95;1446638;89;20761;-82
2022/11/12 10:02:58;;;;;;;;;;;;;;;19.02;52.64;102054.99;1442989;89;20348;-82
2022/11/12 10:05:40;;;;;;;;;;;;;;;19.30;54.98;102057.74;1436736;91;20398;-82
2022/11/12 10:08:43;;;;;;;;;;;;;;;19.51;55.56;102048.39;1441927;90;20294;-82
2022/11/12 10:14:30;;;;;;;;;;;;;;;19.35;50.08;102051.38;1429212;91;21530;-82
2022/11/12 10:17:12;;;;;;;;;;;;;;;18.35;49.19;102049.00;1442367;90;20384;-82
2022/11/12 10:19:54;;;;;;;;;;;;;;;18.77;51.07;102043.37;1438521;89;20270;-81
2022/11/12 10:22:36;;;;;;;;;;;;;;;19.07;53.98;102052.67;1446533;89;20332;-82
2022/11/12 10:25:17;;;;;;;;;;;;;;;19.44;52.04;102050.05;1410255;90;20429;-82
2022/11/12 10:27:43;;;;;;;;;;;;;;;19.59;50.83;102043.86;1433466;91;20329;-82
2022/11/12 10:30:13;;;;;;;;;;;;;;;19.38;51.27;102038.97;1434030;91;20895;-82
2022/11/12 10:32:43;;;;;;;;;;;;;;;19.59;52.15;102040.31;1428372;91;20374;-81
2022/11/12 10:35:10;;;;;;;;;;;;;;;19.69;50.63;102038.34;1436663;91;20292;-83
2022/11/12 10:37:45;;;;;;;;;;;;;;;19.80;49.26;102043.89;1415675;91;20299;-82
2022/11/12 10:40:27;;;;;;;;;;;;;;;19.63;48.00;102037.65;1432963;90;20369;-81
2022/11/12 10:43:05;;;;;;;;;;;;;;;19.14;48.33;102037.61;1433429;91;20316;-82
2022/11/12 10:45:31;;;;;;;;;;;;;;;19.59;52.32;102037.63;1418846;90;20406;-82
2022/11/12 10:47:58;;;;;;;;;;;;;;;19.91;51.67;102037.30;1435912;89;20296;-82
2022/11/12 10:50:29;;;;;;;;;;;;;;;19.78;48.48;102036.49;1419984;90;20297;-82
2022/11/12 10:53:02;;;;;;;;;;;;;;;19.69;48.83;102032.97;1418714;90;20428;-82
2022/11/12 10:55:33;;;;;;;;;;;;;;;18.80;48.32;102030.47;1419577;90;20800;-82
2022/11/12 10:58:12;;;;;;;;;;;;;;;19.06;50.55;102034.91;1395470;92;20334;-81
2022/11/12 11:00:57;;;;;;;;;;;;;;;19.08;50.02;102038.27;1415653;92;20781;-82
2022/11/12 11:03:38;;;;;;;;;;;;;;;19.28;51.17;102026.22;1427128;90;20311;-82
2022/11/12 11:06:17;;;;;;;;;;;;;;;19.36;50.30;102024.02;1432362;90;20428;-82
2022/11/12 11:08:48;;;;;;;;;;;;;;;19.30;51.09;102036.27;1425981;89;20310;-81
2022/11/12 11:11:21;;;;;;;;;;;;;;;19.38;51.07;102036.79;1430297;91;20740;-82
2022/11/12 11:13:52;;;;;;;;;;;;;;;19.32;49.91;102038.30;1434826;89;20416;-81
2022/11/12 11:16:21;;;;;;;;;;;;;;;19.47;51.00;102037.63;1426910;90;20376;-81
2022/11/12 11:18:51;;;;;;;;;;;;;;;19.55;48.21;102037.64;1417604;91;20282;-80
2022/11/12 11:21:50;;;;;;;;;;;;;;;19.28;46.78;102031.59;1432462;90;20305;-82
2022/11/12 11:24:22;;;;;;;;;;;;;;;19.36;49.38;102036.97;1421146;90;20431;-81
2022/11/12 11:27:01;;;;;;;;;;;;;;;19.19;48.32;102037.09;1422416;90;20472;-82
2022/11/12 11:29:52;;;;;;;;;;;;;;;19.19;47.35;102032.59;1427079;90;20643;-81
2022/11/12 11:32:27;;;;;;;;;;;;;;;18.92;47.17;102028.32;1417375;92;20319;-81
2022/11/12 11:35:17;;;;;;;;;;;;;;;19.13;49.59;102027.86;1433955;90;20340;-81
2022/11/12 11:37:46;;;;;;;;;;;;;;;19.34;49.66;102024.21;1420265;90;20297;-81
2022/11/12 11:40:31;;;;;;;;;;;;;;;19.45;50.49;102024.88;1431339;91;20872;-80
2022/11/12 11:43:16;;;;;;;;;;;;;;;19.36;48.85;102018.18;1428098;91;20450;-82
2022/11/12 11:46:12;;;;;;;;;;;;;;;18.98;49.81;102018.78;1431617;90;20559;-81
2022/11/12 11:48:57;;;;;;;;;;;;;;;18.70;48.98;102012.28;1420083;90;20414;-81
2022/11/12 11:51:46;;;;;;;;;;;;;;;18.18;51.10;102021.77;1426346;90;20438;-82
2022/11/12 11:54:28;;;;;;;;;;;;;;;17.74;51.78;102020.45;1425031;90;20331;-83
2022/11/12 11:56:57;;;;;;;;;;;;;;;17.38;51.93;102016.49;1427318;91;20391;-83
2022/11/12 11:59:45;;;;;;;;;;;;;;;17.18;53.31;102010.95;1400408;92;20336;-81
2022/11/12 12:02:46;;;;;;;;;;;;;;;16.83;54.38;102009.89;1429976;90;20304;-81
2022/11/12 12:08:13;;;;;;;;;;;;;;;16.72;56.49;102012.77;1436768;89;20760;-80
2022/11/12 12:10:51;;;;;;;;;;;;;;;16.62;56.25;102007.45;1418826;91;20428;-82
2022/11/12 12:13:33;;;;;;;;;;;;;;;16.52;57.10;102010.69;1446137;89;20403;-82
2022/11/12 12:16:21;;;;;;;;;;;;;;;16.33;56.75;102010.27;1433807;89;20309;-81
2022/11/12 12:18:56;;;;;;;;;;;;;;;16.09;57.58;102012.95;1426605;91;20312;-82
2022/11/12 12:21:24;;;;;;;;;;;;;;;15.90;58.77;102005.82;1434229;90;20319;-82
2022/11/12 12:24:03;;;;;;;;;;;;;;;15.77;59.58;102002.14;1425800;91;20489;-81
2022/11/12 12:26:45;;;;;;;;;;;;;;;15.71;60.05;102002.72;1427884;90;20970;-83
2022/11/12 12:29:20;;;;;;;;;;;;;;;15.66;60.23;101999.59;1435814;90;20384;-82
2022/11/12 12:31:49;;;;;;;;;;;;;;;15.61;60.29;101997.00;1402647;92;20349;-82
2022/11/12 12:34:19;;;;;;;;;;;;;;;15.69;59.97;101990.00;1431701;89;20310;-83
2022/11/12 12:36:46;;;;;;;;;;;;;;;15.88;59.03;101993.60;1431516;91;20469;-84
2022/11/12 12:39:20;;;;;;;;;;;;;;;16.00;58.53;101993.80;1437152;89;20490;-82
2022/11/12 12:41:58;;;;;;;;;;;;;;;16.15;58.32;101991.00;1441328;89;20427;-84
2022/11/12 12:44:58;;;;;;;;;;;;;;;16.30;57.58;101983.84;1416265;91;20326;-84
2022/11/12 12:46:56;;;;;;;;;;;;;;;16.55;57.83;101989.84;1425675;90;20330;-83
2022/11/12 12:49:31;;;;;;;;;;;;;;;16.74;55.88;101994.22;1412642;92;20342;-81
2022/11/12 12:51:58;;;;;;;;;;;;;;;16.81;55.19;101987.83;1447513;89;20294;-81
2022/11/12 12:54:40;;;;;;;;;;;;;;;16.92;56.17;101991.64;1459309;89;20777;-83
2022/11/12 12:57:33;;;;;;;;;;;;;;;16.83;55.11;101989.37;1460198;89;20367;-84
2022/11/12 13:00:28;;;;;;;;;;;;;;;16.83;55.99;101985.36;1394983;93;20343;-83
2022/11/12 13:02:55;;;;;;;;;;;;;;;16.70;55.55;101995.53;1397626;94;20311;-83
2022/11/12 13:05:30;;;;;;;;;;;;;;;16.46;56.37;101989.41;1465908;87;20798;-84
2022/11/12 13:08:00;;;;;;;;;;;;;;;16.39;57.53;101994.98;1484341;87;20230;-82
2022/11/12 13:10:43;;;;;;;;;;;;;;;16.58;58.37;101988.71;1483083;88;20452;-83
2022/11/12 13:13:18;;;;;;;;;;;;;;;16.64;56.81;101985.44;1482928;88;20224;-84
2022/11/12 13:15:52;;;;;;;;;;;;;;;16.85;56.84;101981.18;1477737;88;20341;-85